sensor_id;sensor_type;location;lat;lon;timestamp;P1;durP1;ratioP1;P2;durP2;ratioP2
74064;SDS011;62421;51.412;5.432;2023-03-23T00:02:13;8.80;;;3.20;;
74064;SDS011;62421;51.412;5.432;2023-03-23T00:04:39;9.65;;;3.40;;
74064;SDS011;62421;51.412;5.432;2023-03-23T00:07:07;8.68;;;3.38;;
74064;SDS011;62421;51.412;5.432;2023-03-23T00:09:33;6.87;;;3.13;;
74064;SDS011;62421;51.412;5.432;2023-03-23T00:11:59;7.32;;;3.72;;
74064;SDS011;62421;51.412;5.432;2023-03-23T00:14:31;9.57;;;3.38;;
74064;SDS011;62421;51.412;5.432;2023-03-23T00:17:09;6.60;;;3.73;;
74064;SDS011;62421;51.412;5.432;2023-03-23T00:19:36;9.40;;;3.50;;
74064;SDS011;62421;51.412;5.432;2023-03-23T00:22:11;7.07;;;3.13;;
74064;SDS011;62421;51.412;5.432;2023-03-23T00:24:41;8.07;;;3.60;;
74064;SDS011;62421;51.412;5.432;2023-03-23T00:27:07;7.88;;;3.95;;
74064;SDS011;62421;51.412;5.432;2023-03-23T00:29:34;5.50;;;3.10;;
74064;SDS011;62421;51.412;5.432;2023-03-23T00:32:00;10.60;;;4.45;;
74064;SDS011;62421;51.412;5.432;2023-03-23T00:34:26;9.98;;;3.65;;
74064;SDS011;62421;51.412;5.432;2023-03-23T00:36:57;7.03;;;3.35;;
74064;SDS011;62421;51.412;5.432;2023-03-23T00:39:23;6.30;;;3.72;;
74064;SDS011;62421;51.412;5.432;2023-03-23T00:41:50;7.03;;;3.80;;
74064;SDS011;62421;51.412;5.432;2023-03-23T00:44:16;9.25;;;3.67;;
74064;SDS011;62421;51.412;5.432;2023-03-23T00:46:45;9.47;;;3.90;;
74064;SDS011;62421;51.412;5.432;2023-03-23T00:49:13;7.05;;;3.30;;
74064;SDS011;62421;51.412;5.432;2023-03-23T00:51:40;7.55;;;3.50;;
74064;SDS011;62421;51.412;5.432;2023-03-23T00:54:07;6.85;;;3.53;;
74064;SDS011;62421;51.412;5.432;2023-03-23T00:56:33;6.82;;;3.50;;
74064;SDS011;62421;51.412;5.432;2023-03-23T00:58:59;7.97;;;3.47;;
74064;SDS011;62421;51.412;5.432;2023-03-23T01:01:24;6.72;;;3.67;;
74064;SDS011;62421;51.412;5.432;2023-03-23T01:03:50;6.87;;;3.53;;
74064;SDS011;62421;51.412;5.432;2023-03-23T01:06:15;11.77;;;4.03;;
74064;SDS011;62421;51.412;5.432;2023-03-23T01:08:41;8.10;;;3.90;;
74064;SDS011;62421;51.412;5.432;2023-03-23T01:11:18;5.75;;;3.35;;
74064;SDS011;62421;51.412;5.432;2023-03-23T01:13:45;8.68;;;3.60;;
74064;SDS011;62421;51.412;5.432;2023-03-23T01:16:10;6.90;;;3.50;;
74064;SDS011;62421;51.412;5.432;2023-03-23T01:18:36;5.90;;;3.50;;
74064;SDS011;62421;51.412;5.432;2023-03-23T01:21:06;8.25;;;3.97;;
74064;SDS011;62421;51.412;5.432;2023-03-23T01:23:33;10.80;;;3.75;;
74064;SDS011;62421;51.412;5.432;2023-03-23T01:26:19;6.57;;;3.25;;
74064;SDS011;62421;51.412;5.432;2023-03-23T01:28:46;6.28;;;3.67;;
74064;SDS011;62421;51.412;5.432;2023-03-23T01:31:13;9.90;;;3.73;;
74064;SDS011;62421;51.412;5.432;2023-03-23T01:33:41;5.53;;;2.92;;
74064;SDS011;62421;51.412;5.432;2023-03-23T01:36:09;8.20;;;3.40;;
74064;SDS011;62421;51.412;5.432;2023-03-23T01:38:37;6.17;;;3.07;;
74064;SDS011;62421;51.412;5.432;2023-03-23T01:41:03;7.22;;;3.67;;
74064;SDS011;62421;51.412;5.432;2023-03-23T01:43:29;10.55;;;3.78;;
74064;SDS011;62421;51.412;5.432;2023-03-23T01:45:55;9.47;;;3.23;;
74064;SDS011;62421;51.412;5.432;2023-03-23T01:48:28;7.00;;;3.92;;
74064;SDS011;62421;51.412;5.432;2023-03-23T01:51:07;7.70;;;3.93;;
74064;SDS011;62421;51.412;5.432;2023-03-23T01:53:54;8.48;;;3.25;;
74064;SDS011;62421;51.412;5.432;2023-03-23T01:56:22;5.15;;;2.95;;
74064;SDS011;62421;51.412;5.432;2023-03-23T01:58:55;8.18;;;3.83;;
74064;SDS011;62421;51.412;5.432;2023-03-23T02:01:21;8.25;;;3.30;;
74064;SDS011;62421;51.412;5.432;2023-03-23T02:03:50;9.43;;;3.47;;
74064;SDS011;62421;51.412;5.432;2023-03-23T02:06:17;7.65;;;3.88;;
74064;SDS011;62421;51.412;5.432;2023-03-23T02:08:43;6.10;;;3.50;;
74064;SDS011;62421;51.412;5.432;2023-03-23T02:11:16;7.53;;;3.73;;
74064;SDS011;62421;51.412;5.432;2023-03-23T02:13:44;6.75;;;3.40;;
74064;SDS011;62421;51.412;5.432;2023-03-23T02:16:14;8.00;;;3.63;;
74064;SDS011;62421;51.412;5.432;2023-03-23T02:24:18;7.13;;;3.70;;
74064;SDS011;62421;51.412;5.432;2023-03-23T02:35:50;6.85;;;3.05;;
74064;SDS011;62421;51.412;5.432;2023-03-23T02:38:22;8.67;;;3.60;;
74064;SDS011;62421;51.412;5.432;2023-03-23T02:40:55;7.78;;;3.40;;
74064;SDS011;62421;51.412;5.432;2023-03-23T02:43:25;6.95;;;3.83;;
74064;SDS011;62421;51.412;5.432;2023-03-23T02:45:53;8.38;;;3.60;;
74064;SDS011;62421;51.412;5.432;2023-03-23T02:48:22;5.57;;;3.40;;
74064;SDS011;62421;51.412;5.432;2023-03-23T02:50:52;10.00;;;3.97;;
74064;SDS011;62421;51.412;5.432;2023-03-23T02:53:18;7.53;;;3.55;;
74064;SDS011;62421;51.412;5.432;2023-03-23T02:55:48;7.85;;;3.78;;
74064;SDS011;62421;51.412;5.432;2023-03-23T02:58:17;8.88;;;3.65;;
74064;SDS011;62421;51.412;5.432;2023-03-23T03:00:43;9.07;;;3.85;;
74064;SDS011;62421;51.412;5.432;2023-03-23T03:03:13;8.00;;;3.90;;
74064;SDS011;62421;51.412;5.432;2023-03-23T03:08:50;7.03;;;3.70;;
74064;SDS011;62421;51.412;5.432;2023-03-23T03:11:23;6.68;;;3.88;;
74064;SDS011;62421;51.412;5.432;2023-03-23T03:17:01;7.75;;;3.78;;
74064;SDS011;62421;51.412;5.432;2023-03-23T03:19:49;9.68;;;4.15;;
74064;SDS011;62421;51.412;5.432;2023-03-23T03:22:18;6.75;;;3.50;;
74064;SDS011;62421;51.412;5.432;2023-03-23T03:24:46;8.57;;;4.28;;
74064;SDS011;62421;51.412;5.432;2023-03-23T03:27:14;8.13;;;3.17;;
74064;SDS011;62421;51.412;5.432;2023-03-23T03:29:43;8.13;;;3.75;;
74064;SDS011;62421;51.412;5.432;2023-03-23T03:32:15;7.88;;;3.58;;
74064;SDS011;62421;51.412;5.432;2023-03-23T03:34:45;6.35;;;3.53;;
74064;SDS011;62421;51.412;5.432;2023-03-23T03:37:12;6.18;;;3.83;;
74064;SDS011;62421;51.412;5.432;2023-03-23T03:39:37;5.60;;;2.70;;
74064;SDS011;62421;51.412;5.432;2023-03-23T03:42:06;10.67;;;3.70;;
74064;SDS011;62421;51.412;5.432;2023-03-23T03:44:32;6.20;;;3.38;;
74064;SDS011;62421;51.412;5.432;2023-03-23T03:46:58;7.22;;;3.03;;
74064;SDS011;62421;51.412;5.432;2023-03-23T03:49:24;8.10;;;3.22;;
74064;SDS011;62421;51.412;5.432;2023-03-23T03:51:50;8.43;;;2.93;;
74064;SDS011;62421;51.412;5.432;2023-03-23T03:54:16;8.13;;;2.83;;
74064;SDS011;62421;51.412;5.432;2023-03-23T03:56:41;7.47;;;2.43;;
74064;SDS011;62421;51.412;5.432;2023-03-23T03:59:07;6.67;;;2.63;;
74064;SDS011;62421;51.412;5.432;2023-03-23T04:01:34;7.88;;;2.53;;
74064;SDS011;62421;51.412;5.432;2023-03-23T04:04:00;8.63;;;3.10;;
74064;SDS011;62421;51.412;5.432;2023-03-23T04:06:25;5.63;;;2.45;;
74064;SDS011;62421;51.412;5.432;2023-03-23T04:08:53;6.07;;;2.10;;
74064;SDS011;62421;51.412;5.432;2023-03-23T04:11:24;12.77;;;3.03;;
74064;SDS011;62421;51.412;5.432;2023-03-23T04:13:50;6.75;;;2.20;;
74064;SDS011;62421;51.412;5.432;2023-03-23T04:16:15;8.47;;;2.37;;
74064;SDS011;62421;51.412;5.432;2023-03-23T04:18:42;7.10;;;2.08;;
74064;SDS011;62421;51.412;5.432;2023-03-23T04:21:07;7.05;;;1.95;;
74064;SDS011;62421;51.412;5.432;2023-03-23T04:23:33;7.70;;;2.20;;
74064;SDS011;62421;51.412;5.432;2023-03-23T04:26:00;6.18;;;2.42;;
74064;SDS011;62421;51.412;5.432;2023-03-23T04:28:28;5.55;;;2.40;;
74064;SDS011;62421;51.412;5.432;2023-03-23T04:30:54;8.25;;;2.97;;
74064;SDS011;62421;51.412;5.432;2023-03-23T04:33:24;7.63;;;2.50;;
74064;SDS011;62421;51.412;5.432;2023-03-23T04:35:54;7.40;;;2.30;;
74064;SDS011;62421;51.412;5.432;2023-03-23T04:38:22;9.75;;;2.38;;
74064;SDS011;62421;51.412;5.432;2023-03-23T04:40:50;8.15;;;2.63;;
74064;SDS011;62421;51.412;5.432;2023-03-23T04:43:21;13.52;;;2.90;;
74064;SDS011;62421;51.412;5.432;2023-03-23T04:45:52;7.27;;;2.87;;
74064;SDS011;62421;51.412;5.432;2023-03-23T04:48:22;10.68;;;2.10;;
74064;SDS011;62421;51.412;5.432;2023-03-23T04:50:48;9.23;;;2.55;;
74064;SDS011;62421;51.412;5.432;2023-03-23T04:53:15;8.02;;;2.42;;
74064;SDS011;62421;51.412;5.432;2023-03-23T04:55:43;9.85;;;2.20;;
74064;SDS011;62421;51.412;5.432;2023-03-23T04:58:09;15.77;;;3.13;;
74064;SDS011;62421;51.412;5.432;2023-03-23T05:00:35;9.75;;;2.20;;
74064;SDS011;62421;51.412;5.432;2023-03-23T05:03:01;7.53;;;2.58;;
74064;SDS011;62421;51.412;5.432;2023-03-23T05:05:27;6.00;;;2.25;;
74064;SDS011;62421;51.412;5.432;2023-03-23T05:07:55;6.15;;;2.30;;
74064;SDS011;62421;51.412;5.432;2023-03-23T05:10:21;7.57;;;2.00;;
74064;SDS011;62421;51.412;5.432;2023-03-23T05:12:46;6.35;;;2.35;;
74064;SDS011;62421;51.412;5.432;2023-03-23T05:15:12;7.25;;;2.72;;
74064;SDS011;62421;51.412;5.432;2023-03-23T05:17:39;5.83;;;2.00;;
74064;SDS011;62421;51.412;5.432;2023-03-23T05:20:11;10.30;;;2.30;;
74064;SDS011;62421;51.412;5.432;2023-03-23T05:22:39;9.35;;;2.30;;
74064;SDS011;62421;51.412;5.432;2023-03-23T05:25:05;13.40;;;3.83;;
74064;SDS011;62421;51.412;5.432;2023-03-23T05:27:34;8.80;;;3.33;;
74064;SDS011;62421;51.412;5.432;2023-03-23T05:30:00;10.90;;;2.63;;
74064;SDS011;62421;51.412;5.432;2023-03-23T05:32:26;9.32;;;2.92;;
74064;SDS011;62421;51.412;5.432;2023-03-23T05:34:54;9.82;;;2.85;;
74064;SDS011;62421;51.412;5.432;2023-03-23T05:37:24;10.68;;;2.67;;
74064;SDS011;62421;51.412;5.432;2023-03-23T05:39:51;9.55;;;2.42;;
74064;SDS011;62421;51.412;5.432;2023-03-23T05:42:19;17.60;;;2.80;;
74064;SDS011;62421;51.412;5.432;2023-03-23T05:44:45;11.63;;;3.15;;
74064;SDS011;62421;51.412;5.432;2023-03-23T05:47:11;10.68;;;3.38;;
74064;SDS011;62421;51.412;5.432;2023-03-23T05:49:37;12.80;;;2.60;;
74064;SDS011;62421;51.412;5.432;2023-03-23T05:52:03;12.48;;;2.70;;
74064;SDS011;62421;51.412;5.432;2023-03-23T05:54:28;9.07;;;3.00;;
74064;SDS011;62421;51.412;5.432;2023-03-23T05:56:54;13.43;;;3.10;;
74064;SDS011;62421;51.412;5.432;2023-03-23T05:59:19;5.20;;;2.57;;
74064;SDS011;62421;51.412;5.432;2023-03-23T06:01:44;8.70;;;2.83;;
74064;SDS011;62421;51.412;5.432;2023-03-23T06:04:10;13.43;;;3.23;;
74064;SDS011;62421;51.412;5.432;2023-03-23T06:06:36;12.70;;;4.40;;
74064;SDS011;62421;51.412;5.432;2023-03-23T06:09:02;11.23;;;3.03;;
74064;SDS011;62421;51.412;5.432;2023-03-23T06:11:28;12.80;;;2.83;;
74064;SDS011;62421;51.412;5.432;2023-03-23T06:13:53;11.93;;;2.77;;
74064;SDS011;62421;51.412;5.432;2023-03-23T06:16:19;11.05;;;2.60;;
74064;SDS011;62421;51.412;5.432;2023-03-23T06:18:45;9.47;;;3.30;;
74064;SDS011;62421;51.412;5.432;2023-03-23T06:21:11;9.15;;;3.22;;
74064;SDS011;62421;51.412;5.432;2023-03-23T06:23:37;14.02;;;2.95;;
74064;SDS011;62421;51.412;5.432;2023-03-23T06:26:05;8.32;;;2.60;;
74064;SDS011;62421;51.412;5.432;2023-03-23T06:28:33;11.07;;;2.00;;
74064;SDS011;62421;51.412;5.432;2023-03-23T06:31:02;11.93;;;2.75;;
74064;SDS011;62421;51.412;5.432;2023-03-23T06:33:31;9.82;;;2.30;;
74064;SDS011;62421;51.412;5.432;2023-03-23T06:36:01;10.95;;;2.55;;
74064;SDS011;62421;51.412;5.432;2023-03-23T06:38:27;7.68;;;2.28;;
74064;SDS011;62421;51.412;5.432;2023-03-23T06:40:53;7.60;;;2.23;;
74064;SDS011;62421;51.412;5.432;2023-03-23T06:43:19;9.27;;;2.05;;
74064;SDS011;62421;51.412;5.432;2023-03-23T06:45:45;9.77;;;2.40;;
74064;SDS011;62421;51.412;5.432;2023-03-23T06:48:11;12.70;;;2.15;;
74064;SDS011;62421;51.412;5.432;2023-03-23T06:50:37;12.27;;;2.33;;
74064;SDS011;62421;51.412;5.432;2023-03-23T06:53:02;6.57;;;2.20;;
74064;SDS011;62421;51.412;5.432;2023-03-23T06:55:28;8.53;;;2.03;;
74064;SDS011;62421;51.412;5.432;2023-03-23T06:57:53;7.83;;;2.23;;
74064;SDS011;62421;51.412;5.432;2023-03-23T07:00:18;6.27;;;1.93;;
74064;SDS011;62421;51.412;5.432;2023-03-23T07:02:44;11.40;;;2.30;;
74064;SDS011;62421;51.412;5.432;2023-03-23T07:05:10;12.00;;;2.60;;
74064;SDS011;62421;51.412;5.432;2023-03-23T07:07:37;7.40;;;2.20;;
74064;SDS011;62421;51.412;5.432;2023-03-23T07:10:04;8.20;;;2.60;;
74064;SDS011;62421;51.412;5.432;2023-03-23T07:12:31;8.37;;;2.03;;
74064;SDS011;62421;51.412;5.432;2023-03-23T07:14:58;10.73;;;2.08;;
74064;SDS011;62421;51.412;5.432;2023-03-23T07:17:23;8.23;;;2.63;;
74064;SDS011;62421;51.412;5.432;2023-03-23T07:19:50;9.65;;;2.95;;
74064;SDS011;62421;51.412;5.432;2023-03-23T07:22:15;11.32;;;1.95;;
74064;SDS011;62421;51.412;5.432;2023-03-23T07:24:41;9.53;;;2.23;;
74064;SDS011;62421;51.412;5.432;2023-03-23T07:27:07;7.67;;;2.40;;
74064;SDS011;62421;51.412;5.432;2023-03-23T07:29:32;10.18;;;2.80;;
74064;SDS011;62421;51.412;5.432;2023-03-23T07:32:00;12.10;;;3.25;;
74064;SDS011;62421;51.412;5.432;2023-03-23T07:34:26;15.03;;;3.20;;
74064;SDS011;62421;51.412;5.432;2023-03-23T07:36:52;11.45;;;2.53;;
74064;SDS011;62421;51.412;5.432;2023-03-23T07:39:17;10.93;;;3.10;;
74064;SDS011;62421;51.412;5.432;2023-03-23T07:41:43;13.77;;;3.37;;
74064;SDS011;62421;51.412;5.432;2023-03-23T07:44:08;16.00;;;3.00;;
74064;SDS011;62421;51.412;5.432;2023-03-23T07:46:33;6.10;;;1.92;;
74064;SDS011;62421;51.412;5.432;2023-03-23T07:48:59;4.88;;;2.00;;
74064;SDS011;62421;51.412;5.432;2023-03-23T07:51:25;4.37;;;1.87;;
74064;SDS011;62421;51.412;5.432;2023-03-23T07:53:50;4.88;;;1.90;;
74064;SDS011;62421;51.412;5.432;2023-03-23T07:56:16;5.03;;;1.23;;
74064;SDS011;62421;51.412;5.432;2023-03-23T07:58:47;7.45;;;1.58;;
74064;SDS011;62421;51.412;5.432;2023-03-23T08:01:12;7.85;;;1.50;;
74064;SDS011;62421;51.412;5.432;2023-03-23T08:03:38;9.67;;;1.90;;
74064;SDS011;62421;51.412;5.432;2023-03-23T08:06:04;7.43;;;1.48;;
74064;SDS011;62421;51.412;5.432;2023-03-23T08:08:30;6.60;;;1.60;;
74064;SDS011;62421;51.412;5.432;2023-03-23T08:10:57;5.77;;;1.43;;
74064;SDS011;62421;51.412;5.432;2023-03-23T08:13:22;4.38;;;1.55;;
74064;SDS011;62421;51.412;5.432;2023-03-23T08:15:48;6.30;;;1.70;;
74064;SDS011;62421;51.412;5.432;2023-03-23T08:18:14;6.20;;;1.50;;
74064;SDS011;62421;51.412;5.432;2023-03-23T08:20:40;4.80;;;1.30;;
74064;SDS011;62421;51.412;5.432;2023-03-23T08:23:06;5.90;;;1.90;;
74064;SDS011;62421;51.412;5.432;2023-03-23T08:25:32;6.40;;;1.23;;
74064;SDS011;62421;51.412;5.432;2023-03-23T08:27:59;7.32;;;1.77;;
74064;SDS011;62421;51.412;5.432;2023-03-23T08:30:26;6.25;;;1.63;;
74064;SDS011;62421;51.412;5.432;2023-03-23T08:32:55;14.07;;;2.13;;
74064;SDS011;62421;51.412;5.432;2023-03-23T08:35:23;6.17;;;2.00;;
74064;SDS011;62421;51.412;5.432;2023-03-23T08:37:49;6.07;;;2.00;;
74064;SDS011;62421;51.412;5.432;2023-03-23T08:40:20;6.50;;;1.85;;
74064;SDS011;62421;51.412;5.432;2023-03-23T08:42:47;7.30;;;1.60;;
74064;SDS011;62421;51.412;5.432;2023-03-23T08:45:15;8.50;;;2.05;;
74064;SDS011;62421;51.412;5.432;2023-03-23T08:47:46;4.90;;;1.83;;
74064;SDS011;62421;51.412;5.432;2023-03-23T08:50:17;6.32;;;1.63;;
74064;SDS011;62421;51.412;5.432;2023-03-23T08:52:45;9.10;;;2.78;;
74064;SDS011;62421;51.412;5.432;2023-03-23T08:55:11;6.07;;;1.40;;
74064;SDS011;62421;51.412;5.432;2023-03-23T08:57:37;4.32;;;1.40;;
74064;SDS011;62421;51.412;5.432;2023-03-23T09:00:04;3.55;;;1.60;;
74064;SDS011;62421;51.412;5.432;2023-03-23T09:02:42;4.73;;;1.43;;
74064;SDS011;62421;51.412;5.432;2023-03-23T09:05:09;8.32;;;1.70;;
74064;SDS011;62421;51.412;5.432;2023-03-23T09:07:36;6.03;;;1.73;;
74064;SDS011;62421;51.412;5.432;2023-03-23T09:10:05;6.75;;;1.50;;
74064;SDS011;62421;51.412;5.432;2023-03-23T09:12:31;6.78;;;1.60;;
74064;SDS011;62421;51.412;5.432;2023-03-23T09:14:56;7.30;;;1.70;;
74064;SDS011;62421;51.412;5.432;2023-03-23T09:17:22;5.33;;;1.50;;
74064;SDS011;62421;51.412;5.432;2023-03-23T09:19:47;5.97;;;1.17;;
74064;SDS011;62421;51.412;5.432;2023-03-23T09:22:13;4.70;;;1.60;;
74064;SDS011;62421;51.412;5.432;2023-03-23T09:24:40;4.50;;;1.27;;
74064;SDS011;62421;51.412;5.432;2023-03-23T09:27:06;5.07;;;1.80;;
74064;SDS011;62421;51.412;5.432;2023-03-23T09:29:31;3.23;;;1.27;;
74064;SDS011;62421;51.412;5.432;2023-03-23T09:31:56;6.93;;;1.63;;
74064;SDS011;62421;51.412;5.432;2023-03-23T09:34:23;6.90;;;1.77;;
74064;SDS011;62421;51.412;5.432;2023-03-23T09:36:48;4.05;;;1.50;;
74064;SDS011;62421;51.412;5.432;2023-03-23T09:39:14;2.90;;;1.23;;
74064;SDS011;62421;51.412;5.432;2023-03-23T09:47:44;2.95;;;1.50;;
74064;SDS011;62421;51.412;5.432;2023-03-23T09:50:31;2.28;;;1.17;;
74064;SDS011;62421;51.412;5.432;2023-03-23T09:53:16;4.10;;;1.40;;
74064;SDS011;62421;51.412;5.432;2023-03-23T09:55:45;11.15;;;2.00;;
74064;SDS011;62421;51.412;5.432;2023-03-23T09:58:18;4.05;;;1.70;;
74064;SDS011;62421;51.412;5.432;2023-03-23T10:03:35;8.30;;;2.10;;
74064;SDS011;62421;51.412;5.432;2023-03-23T10:06:04;4.67;;;1.50;;
74064;SDS011;62421;51.412;5.432;2023-03-23T10:08:43;3.67;;;1.80;;
74064;SDS011;62421;51.412;5.432;2023-03-23T10:11:17;6.53;;;1.73;;
74064;SDS011;62421;51.412;5.432;2023-03-23T10:16:42;6.60;;;1.42;;
74064;SDS011;62421;51.412;5.432;2023-03-23T10:19:27;4.23;;;2.00;;
74064;SDS011;62421;51.412;5.432;2023-03-23T10:22:23;8.65;;;2.15;;
74064;SDS011;62421;51.412;5.432;2023-03-23T10:36:03;7.88;;;2.35;;
74064;SDS011;62421;51.412;5.432;2023-03-23T10:38:43;9.50;;;2.95;;
74064;SDS011;62421;51.412;5.432;2023-03-23T10:41:13;6.75;;;2.20;;
74064;SDS011;62421;51.412;5.432;2023-03-23T10:43:41;12.77;;;2.50;;
74064;SDS011;62421;51.412;5.432;2023-03-23T10:48:47;12.40;;;2.47;;
74064;SDS011;62421;51.412;5.432;2023-03-23T10:51:15;6.45;;;2.00;;
74064;SDS011;62421;51.412;5.432;2023-03-23T10:53:45;15.32;;;2.03;;
74064;SDS011;62421;51.412;5.432;2023-03-23T10:56:57;10.68;;;2.20;;
74064;SDS011;62421;51.412;5.432;2023-03-23T10:59:14;7.10;;;1.97;;
74064;SDS011;62421;51.412;5.432;2023-03-23T11:01:52;8.40;;;2.30;;
74064;SDS011;62421;51.412;5.432;2023-03-23T11:04:20;5.13;;;1.77;;
74064;SDS011;62421;51.412;5.432;2023-03-23T11:06:49;5.82;;;1.15;;
74064;SDS011;62421;51.412;5.432;2023-03-23T11:09:21;5.25;;;1.90;;
74064;SDS011;62421;51.412;5.432;2023-03-23T11:11:58;7.70;;;2.10;;
74064;SDS011;62421;51.412;5.432;2023-03-23T11:14:33;7.85;;;1.40;;
74064;SDS011;62421;51.412;5.432;2023-03-23T11:17:04;6.67;;;1.77;;
74064;SDS011;62421;51.412;5.432;2023-03-23T11:19:44;7.72;;;1.50;;
74064;SDS011;62421;51.412;5.432;2023-03-23T11:22:19;6.32;;;1.30;;
74064;SDS011;62421;51.412;5.432;2023-03-23T11:24:52;7.50;;;2.00;;
74064;SDS011;62421;51.412;5.432;2023-03-23T11:27:22;3.30;;;1.55;;
74064;SDS011;62421;51.412;5.432;2023-03-23T11:29:56;7.68;;;1.63;;
74064;SDS011;62421;51.412;5.432;2023-03-23T11:32:33;5.78;;;1.85;;
74064;SDS011;62421;51.412;5.432;2023-03-23T11:35:02;7.13;;;1.80;;
74064;SDS011;62421;51.412;5.432;2023-03-23T11:37:33;4.93;;;1.60;;
74064;SDS011;62421;51.412;5.432;2023-03-23T11:42:43;6.32;;;2.72;;
74064;SDS011;62421;51.412;5.432;2023-03-23T11:50:35;8.60;;;1.80;;
74064;SDS011;62421;51.412;5.432;2023-03-23T11:56:25;5.15;;;2.17;;
74064;SDS011;62421;51.412;5.432;2023-03-23T11:58:52;9.90;;;2.05;;
74064;SDS011;62421;51.412;5.432;2023-03-23T12:01:24;7.93;;;1.42;;
74064;SDS011;62421;51.412;5.432;2023-03-23T12:04:18;7.20;;;1.40;;
74064;SDS011;62421;51.412;5.432;2023-03-23T12:15:45;8.55;;;1.90;;
74064;SDS011;62421;51.412;5.432;2023-03-23T12:23:29;7.55;;;1.95;;
74064;SDS011;62421;51.412;5.432;2023-03-23T12:26:08;8.23;;;2.33;;
74064;SDS011;62421;51.412;5.432;2023-03-23T12:31:15;6.70;;;1.83;;
74064;SDS011;62421;51.412;5.432;2023-03-23T12:39:31;10.15;;;2.05;;
74064;SDS011;62421;51.412;5.432;2023-03-23T12:45:37;12.80;;;2.23;;
74064;SDS011;62421;51.412;5.432;2023-03-23T12:47:46;8.23;;;1.67;;
74064;SDS011;62421;51.412;5.432;2023-03-23T12:50:18;8.70;;;1.83;;
74064;SDS011;62421;51.412;5.432;2023-03-23T12:55:44;7.72;;;1.80;;
74064;SDS011;62421;51.412;5.432;2023-03-23T12:58:13;4.83;;;1.80;;
74064;SDS011;62421;51.412;5.432;2023-03-23T13:00:52;9.18;;;2.65;;
74064;SDS011;62421;51.412;5.432;2023-03-23T13:03:46;13.00;;;2.50;;
74064;SDS011;62421;51.412;5.432;2023-03-23T13:06:21;8.52;;;2.03;;
74064;SDS011;62421;51.412;5.432;2023-03-23T13:08:56;10.95;;;2.08;;
74064;SDS011;62421;51.412;5.432;2023-03-23T13:11:29;14.53;;;2.97;;
74064;SDS011;62421;51.412;5.432;2023-03-23T13:14:13;10.85;;;2.70;;
74064;SDS011;62421;51.412;5.432;2023-03-23T13:22:25;11.57;;;2.30;;
74064;SDS011;62421;51.412;5.432;2023-03-23T13:24:58;9.07;;;2.17;;
74064;SDS011;62421;51.412;5.432;2023-03-23T13:27:28;8.20;;;2.40;;
74064;SDS011;62421;51.412;5.432;2023-03-23T13:29:57;9.55;;;2.20;;
74064;SDS011;62421;51.412;5.432;2023-03-23T13:32:30;8.45;;;1.98;;
74064;SDS011;62421;51.412;5.432;2023-03-23T13:35:00;9.50;;;2.15;;
74064;SDS011;62421;51.412;5.432;2023-03-23T13:37:29;9.03;;;2.83;;
74064;SDS011;62421;51.412;5.432;2023-03-23T13:39:56;13.43;;;3.05;;
74064;SDS011;62421;51.412;5.432;2023-03-23T13:42:24;10.70;;;2.22;;
74064;SDS011;62421;51.412;5.432;2023-03-23T13:48:04;10.23;;;3.10;;
74064;SDS011;62421;51.412;5.432;2023-03-23T13:50:49;7.77;;;2.60;;
74064;SDS011;62421;51.412;5.432;2023-03-23T13:54:04;11.32;;;3.42;;
74064;SDS011;62421;51.412;5.432;2023-03-23T13:56:19;9.50;;;3.42;;
74064;SDS011;62421;51.412;5.432;2023-03-23T13:59:05;12.25;;;3.20;;
74064;SDS011;62421;51.412;5.432;2023-03-23T14:01:41;16.25;;;2.78;;
74064;SDS011;62421;51.412;5.432;2023-03-23T14:04:30;18.20;;;2.53;;
74064;SDS011;62421;51.412;5.432;2023-03-23T14:07:07;12.05;;;3.03;;
74064;SDS011;62421;51.412;5.432;2023-03-23T14:09:39;17.08;;;2.67;;
74064;SDS011;62421;51.412;5.432;2023-03-23T14:12:21;16.33;;;3.97;;
74064;SDS011;62421;51.412;5.432;2023-03-23T14:14:56;10.48;;;3.00;;
74064;SDS011;62421;51.412;5.432;2023-03-23T14:17:30;16.57;;;3.70;;
74064;SDS011;62421;51.412;5.432;2023-03-23T14:20:00;15.63;;;3.30;;
74064;SDS011;62421;51.412;5.432;2023-03-23T14:22:33;13.27;;;3.10;;
74064;SDS011;62421;51.412;5.432;2023-03-23T14:25:02;12.10;;;3.40;;
74064;SDS011;62421;51.412;5.432;2023-03-23T14:27:38;17.48;;;5.35;;
74064;SDS011;62421;51.412;5.432;2023-03-23T14:30:05;16.67;;;3.87;;
74064;SDS011;62421;51.412;5.432;2023-03-23T14:32:33;17.83;;;4.10;;
74064;SDS011;62421;51.412;5.432;2023-03-23T14:35:01;15.93;;;4.75;;
74064;SDS011;62421;51.412;5.432;2023-03-23T14:37:32;14.53;;;4.47;;
74064;SDS011;62421;51.412;5.432;2023-03-23T14:40:00;12.48;;;3.63;;
74064;SDS011;62421;51.412;5.432;2023-03-23T14:42:30;14.18;;;4.03;;
74064;SDS011;62421;51.412;5.432;2023-03-23T14:44:59;13.90;;;4.07;;
74064;SDS011;62421;51.412;5.432;2023-03-23T14:50:05;13.27;;;3.60;;
74064;SDS011;62421;51.412;5.432;2023-03-23T14:52:33;13.82;;;2.83;;
74064;SDS011;62421;51.412;5.432;2023-03-23T14:55:14;13.32;;;3.88;;
74064;SDS011;62421;51.412;5.432;2023-03-23T14:57:41;12.65;;;3.30;;
74064;SDS011;62421;51.412;5.432;2023-03-23T15:00:17;15.33;;;4.30;;
74064;SDS011;62421;51.412;5.432;2023-03-23T15:02:47;11.90;;;3.42;;
74064;SDS011;62421;51.412;5.432;2023-03-23T15:05:18;16.25;;;3.78;;
74064;SDS011;62421;51.412;5.432;2023-03-23T15:07:50;11.52;;;3.78;;
74064;SDS011;62421;51.412;5.432;2023-03-23T15:10:19;14.05;;;3.50;;
74064;SDS011;62421;51.412;5.432;2023-03-23T15:12:46;15.17;;;3.30;;
74064;SDS011;62421;51.412;5.432;2023-03-23T15:15:24;17.08;;;3.40;;
74064;SDS011;62421;51.412;5.432;2023-03-23T15:17:55;13.52;;;3.40;;
74064;SDS011;62421;51.412;5.432;2023-03-23T15:22:52;13.77;;;3.83;;
74064;SDS011;62421;51.412;5.432;2023-03-23T15:25:19;15.33;;;4.53;;
74064;SDS011;62421;51.412;5.432;2023-03-23T15:27:52;11.90;;;3.72;;
74064;SDS011;62421;51.412;5.432;2023-03-23T15:32:47;12.55;;;3.95;;
74064;SDS011;62421;51.412;5.432;2023-03-23T15:35:34;15.77;;;3.67;;
74064;SDS011;62421;51.412;5.432;2023-03-23T15:38:01;14.45;;;3.53;;
74064;SDS011;62421;51.412;5.432;2023-03-23T15:40:32;12.73;;;3.40;;
74064;SDS011;62421;51.412;5.432;2023-03-23T15:48:48;11.40;;;3.30;;
74064;SDS011;62421;51.412;5.432;2023-03-23T15:51:16;10.80;;;3.27;;
74064;SDS011;62421;51.412;5.432;2023-03-23T15:53:43;14.98;;;3.40;;
74064;SDS011;62421;51.412;5.432;2023-03-23T15:56:09;13.13;;;3.70;;
74064;SDS011;62421;51.412;5.432;2023-03-23T15:58:36;11.13;;;3.42;;
74064;SDS011;62421;51.412;5.432;2023-03-23T16:01:13;11.65;;;4.22;;
74064;SDS011;62421;51.412;5.432;2023-03-23T16:03:52;14.98;;;3.70;;
74064;SDS011;62421;51.412;5.432;2023-03-23T16:06:20;12.38;;;3.75;;
74064;SDS011;62421;51.412;5.432;2023-03-23T16:08:47;16.23;;;3.23;;
74064;SDS011;62421;51.412;5.432;2023-03-23T16:11:13;10.80;;;2.95;;
74064;SDS011;62421;51.412;5.432;2023-03-23T16:13:40;15.10;;;3.78;;
74064;SDS011;62421;51.412;5.432;2023-03-23T16:16:09;10.88;;;3.70;;
74064;SDS011;62421;51.412;5.432;2023-03-23T16:18:40;12.55;;;3.67;;
74064;SDS011;62421;51.412;5.432;2023-03-23T16:21:05;11.27;;;3.57;;
74064;SDS011;62421;51.412;5.432;2023-03-23T16:23:31;17.52;;;3.92;;
74064;SDS011;62421;51.412;5.432;2023-03-23T16:25:56;15.43;;;2.90;;
74064;SDS011;62421;51.412;5.432;2023-03-23T16:28:22;9.43;;;3.50;;
74064;SDS011;62421;51.412;5.432;2023-03-23T16:30:47;15.93;;;3.87;;
74064;SDS011;62421;51.412;5.432;2023-03-23T16:33:13;14.63;;;3.45;;
74064;SDS011;62421;51.412;5.432;2023-03-23T16:35:38;15.80;;;3.93;;
74064;SDS011;62421;51.412;5.432;2023-03-23T16:38:04;15.48;;;3.83;;
74064;SDS011;62421;51.412;5.432;2023-03-23T16:40:30;13.90;;;2.97;;
74064;SDS011;62421;51.412;5.432;2023-03-23T16:42:57;19.48;;;3.50;;
74064;SDS011;62421;51.412;5.432;2023-03-23T16:45:23;10.57;;;3.47;;